sensor_id;sensor_type;location;lat;lon;timestamp;P1;durP1;ratioP1;P2;durP2;ratioP2
57746;SDS011;43580;44.014;20.466;2023-06-10T15:33:57;11.23;;;8.93;;
57746;SDS011;43580;44.014;20.466;2023-06-10T15:36:26;10.90;;;8.18;;
57746;SDS011;43580;44.014;20.466;2023-06-10T15:38:52;10.75;;;9.65;;
57746;SDS011;43580;44.014;20.466;2023-06-10T15:41:19;13.38;;;9.40;;
57746;SDS011;43580;44.014;20.466;2023-06-10T15:43:45;10.38;;;8.30;;
57746;SDS011;43580;44.014;20.466;2023-06-10T15:46:12;13.50;;;8.18;;
57746;SDS011;43580;44.014;20.466;2023-06-10T15:48:38;9.43;;;8.50;;
57746;SDS011;43580;44.014;20.466;2023-06-10T15:51:04;9.48;;;8.48;;
57746;SDS011;43580;44.014;20.466;2023-06-10T15:53:30;8.95;;;8.13;;
57746;SDS011;43580;44.014;20.466;2023-06-10T15:55:56;9.52;;;8.45;;
57746;SDS011;43580;44.014;20.466;2023-06-10T15:58:22;10.18;;;8.45;;
57746;SDS011;43580;44.014;20.466;2023-06-10T16:00:48;10.57;;;8.90;;
57746;SDS011;43580;44.014;20.466;2023-06-10T16:03:14;9.30;;;8.40;;
57746;SDS011;43580;44.014;20.466;2023-06-10T16:05:40;10.75;;;9.15;;
57746;SDS011;43580;44.014;20.466;2023-06-10T16:08:09;9.68;;;8.68;;
57746;SDS011;43580;44.014;20.466;2023-06-10T16:10:35;9.65;;;8.75;;
57746;SDS011;43580;44.014;20.466;2023-06-10T16:13:01;10.98;;;8.52;;
57746;SDS011;43580;44.014;20.466;2023-06-10T16:15:27;11.85;;;8.68;;
57746;SDS011;43580;44.014;20.466;2023-06-10T16:17:53;10.52;;;8.70;;
57746;SDS011;43580;44.014;20.466;2023-06-10T16:20:20;10.05;;;9.05;;
57746;SDS011;43580;44.014;20.466;2023-06-10T16:22:51;12.52;;;10.43;;
57746;SDS011;43580;44.014;20.466;2023-06-10T16:25:17;10.68;;;9.57;;
57746;SDS011;43580;44.014;20.466;2023-06-10T16:27:43;10.18;;;9.10;;
57746;SDS011;43580;44.014;20.466;2023-06-10T16:30:10;14.32;;;9.85;;
57746;SDS011;43580;44.014;20.466;2023-06-10T16:32:37;12.63;;;9.68;;
57746;SDS011;43580;44.014;20.466;2023-06-10T16:35:04;18.88;;;10.00;;
57746;SDS011;43580;44.014;20.466;2023-06-10T16:37:32;11.77;;;9.45;;
57746;SDS011;43580;44.014;20.466;2023-06-10T16:40:01;10.73;;;9.63;;
57746;SDS011;43580;44.014;20.466;2023-06-10T16:42:27;13.57;;;11.38;;
57746;SDS011;43580;44.014;20.466;2023-06-10T16:44:53;16.25;;;12.48;;
57746;SDS011;43580;44.014;20.466;2023-06-10T16:47:21;11.63;;;9.82;;
57746;SDS011;43580;44.014;20.466;2023-06-10T16:49:47;14.20;;;11.70;;
57746;SDS011;43580;44.014;20.466;2023-06-10T16:52:16;12.30;;;9.05;;
57746;SDS011;43580;44.014;20.466;2023-06-10T16:54:42;10.70;;;8.48;;
57746;SDS011;43580;44.014;20.466;2023-06-10T16:57:09;13.48;;;10.02;;
57746;SDS011;43580;44.014;20.466;2023-06-10T16:59:35;12.73;;;10.15;;
57746;SDS011;43580;44.014;20.466;2023-06-10T17:02:01;10.52;;;9.32;;
57746;SDS011;43580;44.014;20.466;2023-06-10T17:04:27;12.93;;;9.32;;
57746;SDS011;43580;44.014;20.466;2023-06-10T17:06:53;10.93;;;9.82;;
57746;SDS011;43580;44.014;20.466;2023-06-10T17:09:20;11.73;;;9.50;;
57746;SDS011;43580;44.014;20.466;2023-06-10T17:11:48;11.73;;;9.60;;
57746;SDS011;43580;44.014;20.466;2023-06-10T17:14:14;16.17;;;11.40;;
57746;SDS011;43580;44.014;20.466;2023-06-10T17:16:40;14.00;;;11.73;;
57746;SDS011;43580;44.014;20.466;2023-06-10T17:19:07;16.02;;;11.73;;
57746;SDS011;43580;44.014;20.466;2023-06-10T17:21:33;10.73;;;9.73;;
57746;SDS011;43580;44.014;20.466;2023-06-10T17:23:59;13.98;;;10.10;;
57746;SDS011;43580;44.014;20.466;2023-06-10T17:26:25;16.30;;;12.55;;
57746;SDS011;43580;44.014;20.466;2023-06-10T17:28:52;15.45;;;12.68;;
57746;SDS011;43580;44.014;20.466;2023-06-10T17:31:20;16.50;;;13.80;;
57746;SDS011;43580;44.014;20.466;2023-06-10T17:36:22;21.02;;;17.02;;
57746;SDS011;43580;44.014;20.466;2023-06-10T17:38:48;12.82;;;11.52;;
57746;SDS011;43580;44.014;20.466;2023-06-10T17:41:14;11.98;;;9.52;;
57746;SDS011;43580;44.014;20.466;2023-06-10T17:43:40;14.95;;;11.90;;
57746;SDS011;43580;44.014;20.466;2023-06-10T17:46:06;19.98;;;13.88;;
57746;SDS011;43580;44.014;20.466;2023-06-10T17:48:32;13.10;;;10.85;;
57746;SDS011;43580;44.014;20.466;2023-06-10T17:50:58;15.20;;;11.77;;
57746;SDS011;43580;44.014;20.466;2023-06-10T17:53:25;11.10;;;9.90;;
57746;SDS011;43580;44.014;20.466;2023-06-10T17:55:50;22.02;;;18.30;;
57746;SDS011;43580;44.014;20.466;2023-06-10T17:58:17;22.67;;;18.45;;
57746;SDS011;43580;44.014;20.466;2023-06-10T18:00:43;21.95;;;15.50;;
57746;SDS011;43580;44.014;20.466;2023-06-10T18:03:09;20.88;;;14.32;;
57746;SDS011;43580;44.014;20.466;2023-06-10T18:37:18;16.73;;;12.90;;
57746;SDS011;43580;44.014;20.466;2023-06-10T18:39:44;15.88;;;12.40;;
57746;SDS011;43580;44.014;20.466;2023-06-10T18:42:13;15.00;;;11.95;;
57746;SDS011;43580;44.014;20.466;2023-06-10T18:44:39;18.10;;;11.48;;
57746;SDS011;43580;44.014;20.466;2023-06-10T18:47:05;18.83;;;11.68;;
57746;SDS011;43580;44.014;20.466;2023-06-10T18:49:32;15.95;;;11.77;;
57746;SDS011;43580;44.014;20.466;2023-06-10T18:52:00;19.85;;;12.73;;
57746;SDS011;43580;44.014;20.466;2023-06-10T18:54:26;15.45;;;13.60;;
57746;SDS011;43580;44.014;20.466;2023-06-10T18:56:52;17.77;;;12.60;;
57746;SDS011;43580;44.014;20.466;2023-06-10T18:59:23;13.50;;;12.10;;
57746;SDS011;43580;44.014;20.466;2023-06-10T19:01:49;15.18;;;12.43;;
57746;SDS011;43580;44.014;20.466;2023-06-10T19:04:15;16.75;;;13.65;;
57746;SDS011;43580;44.014;20.466;2023-06-10T19:06:41;15.77;;;13.07;;
57746;SDS011;43580;44.014;20.466;2023-06-10T19:09:07;14.70;;;13.20;;
57746;SDS011;43580;44.014;20.466;2023-06-10T19:11:34;15.20;;;13.45;;
57746;SDS011;43580;44.014;20.466;2023-06-10T19:14:00;18.02;;;13.73;;
57746;SDS011;43580;44.014;20.466;2023-06-10T19:16:29;21.23;;;17.95;;
57746;SDS011;43580;44.014;20.466;2023-06-10T19:19:02;23.45;;;16.80;;
57746;SDS011;43580;44.014;20.466;2023-06-10T19:21:28;19.17;;;14.00;;
57746;SDS011;43580;44.014;20.466;2023-06-10T19:23:54;18.08;;;15.18;;
57746;SDS011;43580;44.014;20.466;2023-06-10T19:26:23;18.20;;;15.80;;
57746;SDS011;43580;44.014;20.466;2023-06-10T19:28:51;18.55;;;15.88;;
57746;SDS011;43580;44.014;20.466;2023-06-10T19:31:17;18.40;;;15.30;;
57746;SDS011;43580;44.014;20.466;2023-06-10T19:33:43;19.77;;;15.32;;
57746;SDS011;43580;44.014;20.466;2023-06-10T19:36:09;16.23;;;14.55;;
57746;SDS011;43580;44.014;20.466;2023-06-10T19:38:35;18.08;;;14.20;;
57746;SDS011;43580;44.014;20.466;2023-06-10T19:41:02;22.10;;;15.93;;
57746;SDS011;43580;44.014;20.466;2023-06-10T19:43:29;19.65;;;16.17;;
57746;SDS011;43580;44.014;20.466;2023-06-10T19:45:55;18.23;;;15.80;;
57746;SDS011;43580;44.014;20.466;2023-06-10T19:48:21;22.52;;;14.90;;
57746;SDS011;43580;44.014;20.466;2023-06-10T19:50:47;19.65;;;16.13;;
57746;SDS011;43580;44.014;20.466;2023-06-10T19:53:13;27.58;;;14.63;;
57746;SDS011;43580;44.014;20.466;2023-06-10T19:55:39;16.90;;;15.13;;
57746;SDS011;43580;44.014;20.466;2023-06-10T19:58:05;18.15;;;15.30;;
57746;SDS011;43580;44.014;20.466;2023-06-10T20:00:32;22.73;;;15.27;;
57746;SDS011;43580;44.014;20.466;2023-06-10T20:02:58;18.80;;;14.55;;
57746;SDS011;43580;44.014;20.466;2023-06-10T20:05:26;16.13;;;14.35;;
57746;SDS011;43580;44.014;20.466;2023-06-10T20:07:55;18.20;;;14.77;;
57746;SDS011;43580;44.014;20.466;2023-06-10T20:10:26;20.73;;;15.73;;
57746;SDS011;43580;44.014;20.466;2023-06-10T20:12:52;19.58;;;14.60;;
57746;SDS011;43580;44.014;20.466;2023-06-10T20:15:20;20.73;;;14.85;;
57746;SDS011;43580;44.014;20.466;2023-06-10T20:17:46;21.67;;;16.20;;
57746;SDS011;43580;44.014;20.466;2023-06-10T20:20:16;17.55;;;15.75;;
57746;SDS011;43580;44.014;20.466;2023-06-10T20:22:42;18.60;;;16.60;;
57746;SDS011;43580;44.014;20.466;2023-06-10T20:25:11;20.45;;;15.27;;
57746;SDS011;43580;44.014;20.466;2023-06-10T20:27:38;20.67;;;15.68;;
57746;SDS011;43580;44.014;20.466;2023-06-10T20:30:04;19.70;;;15.38;;
57746;SDS011;43580;44.014;20.466;2023-06-10T20:32:31;21.30;;;15.85;;
57746;SDS011;43580;44.014;20.466;2023-06-10T20:34:57;19.85;;;14.68;;
57746;SDS011;43580;44.014;20.466;2023-06-10T20:37:25;17.40;;;15.13;;
57746;SDS011;43580;44.014;20.466;2023-06-10T20:39:56;17.58;;;15.68;;
57746;SDS011;43580;44.014;20.466;2023-06-10T20:42:24;20.25;;;16.10;;
57746;SDS011;43580;44.014;20.466;2023-06-10T20:44:50;26.35;;;16.48;;
57746;SDS011;43580;44.014;20.466;2023-06-10T20:47:19;22.25;;;16.45;;
57746;SDS011;43580;44.014;20.466;2023-06-10T20:49:45;16.63;;;14.85;;
57746;SDS011;43580;44.014;20.466;2023-06-10T20:52:13;23.15;;;15.80;;
57746;SDS011;43580;44.014;20.466;2023-06-10T20:54:39;20.45;;;15.63;;
57746;SDS011;43580;44.014;20.466;2023-06-10T20:57:05;20.17;;;15.57;;
57746;SDS011;43580;44.014;20.466;2023-06-10T20:59:32;20.00;;;14.77;;
57746;SDS011;43580;44.014;20.466;2023-06-10T21:01:58;18.98;;;15.18;;
57746;SDS011;43580;44.014;20.466;2023-06-10T21:04:24;19.15;;;16.50;;
57746;SDS011;43580;44.014;20.466;2023-06-10T21:06:50;21.65;;;15.38;;
57746;SDS011;43580;44.014;20.466;2023-06-10T21:09:16;18.75;;;15.75;;
57746;SDS011;43580;44.014;20.466;2023-06-10T21:11:42;21.63;;;15.80;;
57746;SDS011;43580;44.014;20.466;2023-06-10T21:14:08;20.30;;;17.02;;
57746;SDS011;43580;44.014;20.466;2023-06-10T21:16:34;17.88;;;16.05;;
57746;SDS011;43580;44.014;20.466;2023-06-10T21:19:01;22.65;;;16.55;;
57746;SDS011;43580;44.014;20.466;2023-06-10T21:21:27;21.52;;;17.00;;
57746;SDS011;43580;44.014;20.466;2023-06-10T21:23:53;18.63;;;16.10;;
57746;SDS011;43580;44.014;20.466;2023-06-10T21:26:19;19.73;;;16.23;;
57746;SDS011;43580;44.014;20.466;2023-06-10T21:28:48;25.85;;;17.30;;
57746;SDS011;43580;44.014;20.466;2023-06-10T21:31:14;18.83;;;16.35;;
57746;SDS011;43580;44.014;20.466;2023-06-10T21:33:40;21.95;;;16.55;;
57746;SDS011;43580;44.014;20.466;2023-06-10T21:36:06;22.77;;;16.75;;
57746;SDS011;43580;44.014;20.466;2023-06-10T21:38:32;25.15;;;17.17;;
57746;SDS011;43580;44.014;20.466;2023-06-10T21:40:58;18.27;;;16.20;;
57746;SDS011;43580;44.014;20.466;2023-06-10T21:43:32;21.08;;;16.90;;
57746;SDS011;43580;44.014;20.466;2023-06-10T21:45:58;20.58;;;15.85;;
57746;SDS011;43580;44.014;20.466;2023-06-10T21:48:24;24.55;;;16.73;;
57746;SDS011;43580;44.014;20.466;2023-06-10T21:50:50;19.85;;;15.40;;
57746;SDS011;43580;44.014;20.466;2023-06-10T21:53:24;21.30;;;16.40;;
57746;SDS011;43580;44.014;20.466;2023-06-10T21:55:50;24.55;;;18.25;;
57746;SDS011;43580;44.014;20.466;2023-06-10T21:58:21;24.75;;;18.45;;
57746;SDS011;43580;44.014;20.466;2023-06-10T22:00:47;19.73;;;15.27;;
57746;SDS011;43580;44.014;20.466;2023-06-10T22:03:13;24.05;;;19.70;;
57746;SDS011;43580;44.014;20.466;2023-06-10T22:05:41;27.30;;;18.30;;
57746;SDS011;43580;44.014;20.466;2023-06-10T22:08:07;25.40;;;17.70;;
57746;SDS011;43580;44.014;20.466;2023-06-10T22:10:38;24.27;;;20.38;;
57746;SDS011;43580;44.014;20.466;2023-06-10T22:13:07;24.55;;;19.50;;
57746;SDS011;43580;44.014;20.466;2023-06-10T22:15:35;30.08;;;20.40;;
57746;SDS011;43580;44.014;20.466;2023-06-10T22:18:01;24.77;;;17.35;;
57746;SDS011;43580;44.014;20.466;2023-06-10T22:20:27;20.33;;;17.90;;
57746;SDS011;43580;44.014;20.466;2023-06-10T22:22:53;22.60;;;20.17;;
57746;SDS011;43580;44.014;20.466;2023-06-10T22:25:22;30.23;;;20.90;;
57746;SDS011;43580;44.014;20.466;2023-06-10T22:27:50;25.67;;;21.02;;
57746;SDS011;43580;44.014;20.466;2023-06-10T22:30:16;22.35;;;17.67;;
57746;SDS011;43580;44.014;20.466;2023-06-10T22:32:42;25.13;;;16.73;;
57746;SDS011;43580;44.014;20.466;2023-06-10T22:35:09;19.65;;;17.33;;
57746;SDS011;43580;44.014;20.466;2023-06-10T22:37:36;26.25;;;17.60;;
57746;SDS011;43580;44.014;20.466;2023-06-10T22:40:02;21.58;;;19.33;;
57746;SDS011;43580;44.014;20.466;2023-06-10T22:42:28;28.35;;;22.88;;
57746;SDS011;43580;44.014;20.466;2023-06-10T22:44:54;27.40;;;23.08;;
57746;SDS011;43580;44.014;20.466;2023-06-10T22:47:20;32.30;;;23.30;;
57746;SDS011;43580;44.014;20.466;2023-06-10T22:49:59;28.63;;;22.50;;
57746;SDS011;43580;44.014;20.466;2023-06-10T22:52:25;31.30;;;22.95;;
57746;SDS011;43580;44.014;20.466;2023-06-10T22:54:51;22.75;;;20.13;;
57746;SDS011;43580;44.014;20.466;2023-06-10T22:57:22;22.15;;;19.40;;
57746;SDS011;43580;44.014;20.466;2023-06-10T22:59:48;23.95;;;19.58;;
57746;SDS011;43580;44.014;20.466;2023-06-10T23:02:14;20.23;;;17.13;;
57746;SDS011;43580;44.014;20.466;2023-06-10T23:04:42;23.67;;;18.88;;
57746;SDS011;43580;44.014;20.466;2023-06-10T23:07:08;27.02;;;17.27;;
57746;SDS011;43580;44.014;20.466;2023-06-10T23:09:38;21.48;;;18.08;;
57746;SDS011;43580;44.014;20.466;2023-06-10T23:12:05;20.48;;;16.55;;
57746;SDS011;43580;44.014;20.466;2023-06-10T23:14:33;19.77;;;16.95;;
57746;SDS011;43580;44.014;20.466;2023-06-10T23:16:59;20.45;;;17.48;;
57746;SDS011;43580;44.014;20.466;2023-06-10T23:19:25;21.50;;;18.02;;
57746;SDS011;43580;44.014;20.466;2023-06-10T23:21:52;25.83;;;19.98;;
57746;SDS011;43580;44.014;20.466;2023-06-10T23:24:22;26.38;;;18.98;;
57746;SDS011;43580;44.014;20.466;2023-06-10T23:26:58;21.90;;;19.50;;
57746;SDS011;43580;44.014;20.466;2023-06-10T23:29:24;19.35;;;16.80;;
57746;SDS011;43580;44.014;20.466;2023-06-10T23:31:55;21.10;;;17.08;;
57746;SDS011;43580;44.014;20.466;2023-06-10T23:34:21;21.55;;;17.63;;
57746;SDS011;43580;44.014;20.466;2023-06-10T23:36:47;18.92;;;16.15;;
57746;SDS011;43580;44.014;20.466;2023-06-10T23:39:17;21.58;;;16.85;;
57746;SDS011;43580;44.014;20.466;2023-06-10T23:41:44;22.80;;;17.23;;
57746;SDS011;43580;44.014;20.466;2023-06-10T23:44:11;26.17;;;17.38;;
57746;SDS011;43580;44.014;20.466;2023-06-10T23:46:37;24.05;;;17.92;;
57746;SDS011;43580;44.014;20.466;2023-06-10T23:49:03;22.25;;;17.58;;
57746;SDS011;43580;44.014;20.466;2023-06-10T23:51:34;20.10;;;16.98;;
57746;SDS011;43580;44.014;20.466;2023-06-10T23:54:01;19.70;;;16.45;;
57746;SDS011;43580;44.014;20.466;2023-06-10T23:56:29;23.02;;;19.25;;
57746;SDS011;43580;44.014;20.466;2023-06-10T23:58:56;26.02;;;23.02;;
